sensor_id;sensor_type;location;lat;lon;timestamp;temperature;humidity
33837;DHT22;20140;49.356;8.812;2022-09-13T00:00:50;13.20;99.90
33837;DHT22;20140;49.356;8.812;2022-09-13T00:03:16;13.20;99.90
33837;DHT22;20140;49.356;8.812;2022-09-13T00:05:42;13.30;99.90
33837;DHT22;20140;49.356;8.812;2022-09-13T00:08:08;13.30;99.90
33837;DHT22;20140;49.356;8.812;2022-09-13T00:10:35;13.30;99.90
33837;DHT22;20140;49.356;8.812;2022-09-13T00:13:05;13.20;99.90
33837;DHT22;20140;49.356;8.812;2022-09-13T00:15:32;13.20;99.90
33837;DHT22;20140;49.356;8.812;2022-09-13T00:17:58;13.10;99.90
33837;DHT22;20140;49.356;8.812;2022-09-13T00:20:23;13.00;99.90
33837;DHT22;20140;49.356;8.812;2022-09-13T00:22:49;13.20;99.90
33837;DHT22;20140;49.356;8.812;2022-09-13T00:25:14;13.10;99.90
33837;DHT22;20140;49.356;8.812;2022-09-13T00:27:40;13.10;99.90
33837;DHT22;20140;49.356;8.812;2022-09-13T00:30:06;12.90;99.90
33837;DHT22;20140;49.356;8.812;2022-09-13T00:32:34;12.80;99.90
33837;DHT22;20140;49.356;8.812;2022-09-13T00:35:03;12.70;99.90
33837;DHT22;20140;49.356;8.812;2022-09-13T00:37:29;12.80;99.90
33837;DHT22;20140;49.356;8.812;2022-09-13T00:39:55;12.80;99.90
33837;DHT22;20140;49.356;8.812;2022-09-13T00:42:26;12.80;99.90
33837;DHT22;20140;49.356;8.812;2022-09-13T00:45:17;12.70;99.90
33837;DHT22;20140;49.356;8.812;2022-09-13T00:47:58;12.70;99.90
33837;DHT22;20140;49.356;8.812;2022-09-13T00:50:32;12.70;99.90
33837;DHT22;20140;49.356;8.812;2022-09-13T00:53:04;12.70;99.90
33837;DHT22;20140;49.356;8.812;2022-09-13T00:55:45;12.70;99.90
33837;DHT22;20140;49.356;8.812;2022-09-13T00:58:17;12.70;99.90
33837;DHT22;20140;49.356;8.812;2022-09-13T01:00:45;12.70;99.90
33837;DHT22;20140;49.356;8.812;2022-09-13T01:03:12;12.60;99.90
33837;DHT22;20140;49.356;8.812;2022-09-13T01:05:43;12.70;99.90
33837;DHT22;20140;49.356;8.812;2022-09-13T01:08:11;12.70;99.90
33837;DHT22;20140;49.356;8.812;2022-09-13T01:10:41;12.70;99.90
33837;DHT22;20140;49.356;8.812;2022-09-13T01:13:13;12.70;99.90
33837;DHT22;20140;49.356;8.812;2022-09-13T01:15:41;12.70;99.90
33837;DHT22;20140;49.356;8.812;2022-09-13T01:18:07;12.80;99.90
33837;DHT22;20140;49.356;8.812;2022-09-13T01:20:47;12.70;99.90
33837;DHT22;20140;49.356;8.812;2022-09-13T01:29:04;12.60;99.90
33837;DHT22;20140;49.356;8.812;2022-09-13T01:31:44;12.60;99.90
33837;DHT22;20140;49.356;8.812;2022-09-13T01:34:25;12.60;99.90
33837;DHT22;20140;49.356;8.812;2022-09-13T01:37:18;12.50;99.90
33837;DHT22;20140;49.356;8.812;2022-09-13T01:53:12;12.40;99.90
33837;DHT22;20140;49.356;8.812;2022-09-13T01:55:55;12.30;99.90
33837;DHT22;20140;49.356;8.812;2022-09-13T02:01:12;12.20;99.90
33837;DHT22;20140;49.356;8.812;2022-09-13T02:03:58;12.30;99.90
33837;DHT22;20140;49.356;8.812;2022-09-13T02:06:30;12.30;99.90
33837;DHT22;20140;49.356;8.812;2022-09-13T02:09:00;12.30;99.90
33837;DHT22;20140;49.356;8.812;2022-09-13T02:11:27;12.30;99.90
33837;DHT22;20140;49.356;8.812;2022-09-13T02:14:02;12.30;99.90
33837;DHT22;20140;49.356;8.812;2022-09-13T02:16:32;12.20;99.90
33837;DHT22;20140;49.356;8.812;2022-09-13T02:19:15;12.10;99.90
33837;DHT22;20140;49.356;8.812;2022-09-13T02:21:45;12.00;99.90
33837;DHT22;20140;49.356;8.812;2022-09-13T02:24:15;12.00;99.90
33837;DHT22;20140;49.356;8.812;2022-09-13T02:26:44;12.00;99.90
33837;DHT22;20140;49.356;8.812;2022-09-13T02:29:13;12.10;99.90
33837;DHT22;20140;49.356;8.812;2022-09-13T02:31:46;12.00;99.90
33837;DHT22;20140;49.356;8.812;2022-09-13T02:34:21;11.90;99.90
33837;DHT22;20140;49.356;8.812;2022-09-13T02:36:47;12.00;99.90
33837;DHT22;20140;49.356;8.812;2022-09-13T02:39:18;12.00;99.90
33837;DHT22;20140;49.356;8.812;2022-09-13T02:41:59;12.00;99.90
33837;DHT22;20140;49.356;8.812;2022-09-13T02:44:41;12.00;99.90
33837;DHT22;20140;49.356;8.812;2022-09-13T02:53:29;11.90;99.90
33837;DHT22;20140;49.356;8.812;2022-09-13T03:01:18;11.90;99.90
33837;DHT22;20140;49.356;8.812;2022-09-13T03:03:45;11.90;99.90
33837;DHT22;20140;49.356;8.812;2022-09-13T03:06:11;11.80;99.90
33837;DHT22;20140;49.356;8.812;2022-09-13T03:08:37;11.70;99.90
33837;DHT22;20140;49.356;8.812;2022-09-13T03:11:18;11.60;99.90
33837;DHT22;20140;49.356;8.812;2022-09-13T03:16:44;11.60;99.90
33837;DHT22;20140;49.356;8.812;2022-09-13T03:19:16;11.60;99.90
33837;DHT22;20140;49.356;8.812;2022-09-13T03:25:05;11.50;99.90
33837;DHT22;20140;49.356;8.812;2022-09-13T03:27:51;11.50;99.90
33837;DHT22;20140;49.356;8.812;2022-09-13T03:30:21;11.40;99.90
33837;DHT22;20140;49.356;8.812;2022-09-13T03:32:50;11.40;99.90
33837;DHT22;20140;49.356;8.812;2022-09-13T03:38:26;11.40;99.90
33837;DHT22;20140;49.356;8.812;2022-09-13T03:41:09;11.50;99.90
33837;DHT22;20140;49.356;8.812;2022-09-13T03:43:47;11.40;99.90
33837;DHT22;20140;49.356;8.812;2022-09-13T03:46:23;11.40;99.90
33837;DHT22;20140;49.356;8.812;2022-09-13T03:48:51;11.40;99.90
33837;DHT22;20140;49.356;8.812;2022-09-13T03:51:17;11.40;99.90
33837;DHT22;20140;49.356;8.812;2022-09-13T03:53:51;11.40;99.90
33837;DHT22;20140;49.356;8.812;2022-09-13T03:56:19;11.30;99.90
33837;DHT22;20140;49.356;8.812;2022-09-13T03:58:46;11.30;99.90
33837;DHT22;20140;49.356;8.812;2022-09-13T04:01:12;11.30;99.90
33837;DHT22;20140;49.356;8.812;2022-09-13T04:03:38;11.30;99.90
33837;DHT22;20140;49.356;8.812;2022-09-13T04:06:04;11.40;99.90
33837;DHT22;20140;49.356;8.812;2022-09-13T04:08:31;11.60;99.90
33837;DHT22;20140;49.356;8.812;2022-09-13T04:10:56;11.60;99.90
33837;DHT22;20140;49.356;8.812;2022-09-13T04:13:22;11.70;99.90
33837;DHT22;20140;49.356;8.812;2022-09-13T04:15:48;11.70;99.90
33837;DHT22;20140;49.356;8.812;2022-09-13T04:18:14;11.70;99.90
33837;DHT22;20140;49.356;8.812;2022-09-13T04:20:40;11.60;99.90
33837;DHT22;20140;49.356;8.812;2022-09-13T04:23:06;11.70;99.90
33837;DHT22;20140;49.356;8.812;2022-09-13T04:25:31;11.70;99.90
33837;DHT22;20140;49.356;8.812;2022-09-13T04:27:57;11.70;99.90
33837;DHT22;20140;49.356;8.812;2022-09-13T04:30:25;11.70;99.90
33837;DHT22;20140;49.356;8.812;2022-09-13T04:32:51;11.70;99.90
33837;DHT22;20140;49.356;8.812;2022-09-13T04:35:17;11.60;99.90
33837;DHT22;20140;49.356;8.812;2022-09-13T04:37:44;11.50;99.90
33837;DHT22;20140;49.356;8.812;2022-09-13T04:40:10;11.50;99.90
33837;DHT22;20140;49.356;8.812;2022-09-13T04:42:36;11.50;99.90
33837;DHT22;20140;49.356;8.812;2022-09-13T04:45:03;11.60;99.90
33837;DHT22;20140;49.356;8.812;2022-09-13T04:47:28;11.50;99.90
33837;DHT22;20140;49.356;8.812;2022-09-13T04:49:55;11.50;99.90
33837;DHT22;20140;49.356;8.812;2022-09-13T04:52:20;11.50;99.90
33837;DHT22;20140;49.356;8.812;2022-09-13T04:54:46;11.50;99.90
33837;DHT22;20140;49.356;8.812;2022-09-13T04:57:13;11.50;99.90
33837;DHT22;20140;49.356;8.812;2022-09-13T04:59:39;11.50;99.90
33837;DHT22;20140;49.356;8.812;2022-09-13T05:02:04;11.60;99.90
33837;DHT22;20140;49.356;8.812;2022-09-13T05:04:30;11.60;99.90
33837;DHT22;20140;49.356;8.812;2022-09-13T05:06:55;11.60;99.90
33837;DHT22;20140;49.356;8.812;2022-09-13T05:09:23;11.60;99.90
33837;DHT22;20140;49.356;8.812;2022-09-13T05:11:49;11.60;99.90
33837;DHT22;20140;49.356;8.812;2022-09-13T05:14:14;11.60;99.90
33837;DHT22;20140;49.356;8.812;2022-09-13T05:16:40;11.60;99.90
33837;DHT22;20140;49.356;8.812;2022-09-13T05:19:06;11.60;99.90
33837;DHT22;20140;49.356;8.812;2022-09-13T05:21:31;11.60;99.90
33837;DHT22;20140;49.356;8.812;2022-09-13T05:23:57;11.60;99.90
33837;DHT22;20140;49.356;8.812;2022-09-13T05:26:26;11.60;99.90
33837;DHT22;20140;49.356;8.812;2022-09-13T05:28:52;11.70;99.90
33837;DHT22;20140;49.356;8.812;2022-09-13T05:31:20;11.70;99.90
33837;DHT22;20140;49.356;8.812;2022-09-13T05:33:51;11.70;99.90
33837;DHT22;20140;49.356;8.812;2022-09-13T05:36:16;11.80;99.90
33837;DHT22;20140;49.356;8.812;2022-09-13T05:38:42;11.80;99.90
33837;DHT22;20140;49.356;8.812;2022-09-13T05:41:08;11.80;99.90
33837;DHT22;20140;49.356;8.812;2022-09-13T05:43:34;11.80;99.90
33837;DHT22;20140;49.356;8.812;2022-09-13T05:46:05;11.80;99.90
33837;DHT22;20140;49.356;8.812;2022-09-13T05:48:32;11.90;99.90
33837;DHT22;20140;49.356;8.812;2022-09-13T05:51:14;11.90;99.90
33837;DHT22;20140;49.356;8.812;2022-09-13T05:53:42;12.00;99.90
33837;DHT22;20140;49.356;8.812;2022-09-13T05:56:10;12.10;99.90
33837;DHT22;20140;49.356;8.812;2022-09-13T05:58:44;12.20;99.90
33837;DHT22;20140;49.356;8.812;2022-09-13T06:01:11;12.20;99.90
33837;DHT22;20140;49.356;8.812;2022-09-13T06:03:37;12.10;99.90
33837;DHT22;20140;49.356;8.812;2022-09-13T06:06:04;12.20;99.90
33837;DHT22;20140;49.356;8.812;2022-09-13T06:08:31;12.20;99.90
33837;DHT22;20140;49.356;8.812;2022-09-13T06:10:59;12.20;99.90
33837;DHT22;20140;49.356;8.812;2022-09-13T06:13:26;12.30;99.90
33837;DHT22;20140;49.356;8.812;2022-09-13T06:15:53;12.30;99.90
33837;DHT22;20140;49.356;8.812;2022-09-13T06:18:19;12.30;99.90
33837;DHT22;20140;49.356;8.812;2022-09-13T06:20:45;12.40;99.90
33837;DHT22;20140;49.356;8.812;2022-09-13T06:23:11;12.30;99.90
33837;DHT22;20140;49.356;8.812;2022-09-13T06:25:37;12.40;99.90
33837;DHT22;20140;49.356;8.812;2022-09-13T06:28:03;12.40;99.90
33837;DHT22;20140;49.356;8.812;2022-09-13T06:30:28;12.40;99.90
33837;DHT22;20140;49.356;8.812;2022-09-13T06:32:57;12.50;99.90
33837;DHT22;20140;49.356;8.812;2022-09-13T06:35:23;12.70;99.90
33837;DHT22;20140;49.356;8.812;2022-09-13T06:37:48;12.70;99.90
33837;DHT22;20140;49.356;8.812;2022-09-13T06:40:14;12.90;99.90
33837;DHT22;20140;49.356;8.812;2022-09-13T06:42:41;13.20;99.90
33837;DHT22;20140;49.356;8.812;2022-09-13T06:45:06;13.30;99.90
33837;DHT22;20140;49.356;8.812;2022-09-13T06:47:32;13.30;99.90
33837;DHT22;20140;49.356;8.812;2022-09-13T06:49:58;13.30;99.90
33837;DHT22;20140;49.356;8.812;2022-09-13T06:52:25;13.30;99.90
33837;DHT22;20140;49.356;8.812;2022-09-13T06:54:50;13.40;99.90
33837;DHT22;20140;49.356;8.812;2022-09-13T06:57:16;13.40;99.90
33837;DHT22;20140;49.356;8.812;2022-09-13T06:59:42;13.40;99.90
33837;DHT22;20140;49.356;8.812;2022-09-13T07:02:09;13.60;99.90
33837;DHT22;20140;49.356;8.812;2022-09-13T07:04:34;13.60;99.90
33837;DHT22;20140;49.356;8.812;2022-09-13T07:07:00;13.60;99.90
33837;DHT22;20140;49.356;8.812;2022-09-13T07:09:26;13.70;99.90
33837;DHT22;20140;49.356;8.812;2022-09-13T07:11:53;13.70;99.90
33837;DHT22;20140;49.356;8.812;2022-09-13T07:14:22;13.80;99.90
33837;DHT22;20140;49.356;8.812;2022-09-13T07:16:48;13.90;99.90
33837;DHT22;20140;49.356;8.812;2022-09-13T07:19:16;13.90;99.90
33837;DHT22;20140;49.356;8.812;2022-09-13T07:21:42;14.00;99.90
33837;DHT22;20140;49.356;8.812;2022-09-13T07:24:08;14.00;99.90
33837;DHT22;20140;49.356;8.812;2022-09-13T07:26:34;14.00;99.90
33837;DHT22;20140;49.356;8.812;2022-09-13T07:29:02;14.10;99.90
33837;DHT22;20140;49.356;8.812;2022-09-13T07:31:30;14.20;99.90
33837;DHT22;20140;49.356;8.812;2022-09-13T07:33:58;14.20;99.90
33837;DHT22;20140;49.356;8.812;2022-09-13T07:36:25;14.20;99.90
33837;DHT22;20140;49.356;8.812;2022-09-13T07:38:51;14.30;99.90
33837;DHT22;20140;49.356;8.812;2022-09-13T07:41:22;14.40;99.90
33837;DHT22;20140;49.356;8.812;2022-09-13T07:43:48;14.50;99.90
33837;DHT22;20140;49.356;8.812;2022-09-13T07:46:16;14.60;99.90
33837;DHT22;20140;49.356;8.812;2022-09-13T07:48:43;14.60;99.90
33837;DHT22;20140;49.356;8.812;2022-09-13T07:51:14;14.70;99.90
33837;DHT22;20140;49.356;8.812;2022-09-13T07:53:42;14.80;99.90
33837;DHT22;20140;49.356;8.812;2022-09-13T07:56:10;14.90;99.90
33837;DHT22;20140;49.356;8.812;2022-09-13T07:58:38;15.00;99.90
33837;DHT22;20140;49.356;8.812;2022-09-13T08:03:33;15.20;99.90
33837;DHT22;20140;49.356;8.812;2022-09-13T08:05:58;15.30;99.90
33837;DHT22;20140;49.356;8.812;2022-09-13T08:08:24;15.40;99.90
33837;DHT22;20140;49.356;8.812;2022-09-13T08:10:49;15.50;99.90
33837;DHT22;20140;49.356;8.812;2022-09-13T08:13:16;15.60;99.90
33837;DHT22;20140;49.356;8.812;2022-09-13T08:15:42;15.70;99.90
33837;DHT22;20140;49.356;8.812;2022-09-13T08:18:07;15.80;99.90
33837;DHT22;20140;49.356;8.812;2022-09-13T08:20:37;16.00;99.90
33837;DHT22;20140;49.356;8.812;2022-09-13T08:23:04;16.00;99.90
33837;DHT22;20140;49.356;8.812;2022-09-13T08:25:34;16.20;99.90
33837;DHT22;20140;49.356;8.812;2022-09-13T08:28:04;16.30;99.90
33837;DHT22;20140;49.356;8.812;2022-09-13T08:30:29;16.50;99.90
33837;DHT22;20140;49.356;8.812;2022-09-13T08:32:58;16.60;99.90
33837;DHT22;20140;49.356;8.812;2022-09-13T08:35:25;16.80;99.90
33837;DHT22;20140;49.356;8.812;2022-09-13T08:37:51;17.00;99.90
33837;DHT22;20140;49.356;8.812;2022-09-13T08:40:16;17.10;99.90
33837;DHT22;20140;49.356;8.812;2022-09-13T08:43:00;17.10;99.90
33837;DHT22;20140;49.356;8.812;2022-09-13T08:45:26;17.20;99.90
33837;DHT22;20140;49.356;8.812;2022-09-13T08:47:57;17.50;99.90
33837;DHT22;20140;49.356;8.812;2022-09-13T08:50:37;17.60;99.90
33837;DHT22;20140;49.356;8.812;2022-09-13T08:53:25;17.60;99.90
33837;DHT22;20140;49.356;8.812;2022-09-13T09:06:38;18.30;99.90
33837;DHT22;20140;49.356;8.812;2022-09-13T09:09:07;18.40;99.90
33837;DHT22;20140;49.356;8.812;2022-09-13T09:16:54;18.80;99.90
33837;DHT22;20140;49.356;8.812;2022-09-13T09:19:28;19.20;99.90
33837;DHT22;20140;49.356;8.812;2022-09-13T09:22:00;19.10;99.90
33837;DHT22;20140;49.356;8.812;2022-09-13T09:24:26;19.20;99.90
33837;DHT22;20140;49.356;8.812;2022-09-13T09:26:53;19.30;99.90
33837;DHT22;20140;49.356;8.812;2022-09-13T09:29:30;19.40;99.90
33837;DHT22;20140;49.356;8.812;2022-09-13T09:37:24;19.50;99.90
33837;DHT22;20140;49.356;8.812;2022-09-13T09:39:52;19.50;99.90
33837;DHT22;20140;49.356;8.812;2022-09-13T09:42:21;19.60;99.90
33837;DHT22;20140;49.356;8.812;2022-09-13T09:45:17;19.70;99.90
33837;DHT22;20140;49.356;8.812;2022-09-13T09:47:45;19.80;99.90
33837;DHT22;20140;49.356;8.812;2022-09-13T09:50:23;19.90;99.90
33837;DHT22;20140;49.356;8.812;2022-09-13T09:55:27;20.20;99.90
33837;DHT22;20140;49.356;8.812;2022-09-13T09:58:06;20.70;99.90
33837;DHT22;20140;49.356;8.812;2022-09-13T10:00:35;21.10;99.90
33837;DHT22;20140;49.356;8.812;2022-09-13T10:03:04;21.30;99.90
33837;DHT22;20140;49.356;8.812;2022-09-13T10:05:30;20.80;99.90
33837;DHT22;20140;49.356;8.812;2022-09-13T10:08:01;20.90;99.90
33837;DHT22;20140;49.356;8.812;2022-09-13T10:10:52;20.50;99.90
33837;DHT22;20140;49.356;8.812;2022-09-13T10:13:20;20.40;99.90
33837;DHT22;20140;49.356;8.812;2022-09-13T10:16:25;20.60;99.90
33837;DHT22;20140;49.356;8.812;2022-09-13T10:18:50;21.00;99.90
33837;DHT22;20140;49.356;8.812;2022-09-13T10:23:42;21.40;99.90
33837;DHT22;20140;49.356;8.812;2022-09-13T10:26:19;21.40;99.90
33837;DHT22;20140;49.356;8.812;2022-09-13T10:31:34;21.50;99.90
33837;DHT22;20140;49.356;8.812;2022-09-13T10:34:05;21.90;99.90
33837;DHT22;20140;49.356;8.812;2022-09-13T10:36:34;22.20;99.90
33837;DHT22;20140;49.356;8.812;2022-09-13T10:39:03;22.20;99.90
33837;DHT22;20140;49.356;8.812;2022-09-13T10:41:33;21.80;99.90
33837;DHT22;20140;49.356;8.812;2022-09-13T10:44:02;21.60;99.90
33837;DHT22;20140;49.356;8.812;2022-09-13T10:46:30;21.70;99.90
33837;DHT22;20140;49.356;8.812;2022-09-13T10:48:57;22.00;99.90
33837;DHT22;20140;49.356;8.812;2022-09-13T10:54:17;22.30;99.90
33837;DHT22;20140;49.356;8.812;2022-09-13T10:56:44;22.20;99.90
33837;DHT22;20140;49.356;8.812;2022-09-13T10:59:22;22.20;99.90
33837;DHT22;20140;49.356;8.812;2022-09-13T11:12:41;22.80;99.90
33837;DHT22;20140;49.356;8.812;2022-09-13T11:34:29;23.20;99.90
33837;DHT22;20140;49.356;8.812;2022-09-13T11:37:15;22.90;99.90
33837;DHT22;20140;49.356;8.812;2022-09-13T11:39:46;22.90;99.90
33837;DHT22;20140;49.356;8.812;2022-09-13T11:45:26;22.70;99.90
33837;DHT22;20140;49.356;8.812;2022-09-13T11:48:35;22.70;99.90
33837;DHT22;20140;49.356;8.812;2022-09-13T11:54:25;22.80;99.90
33837;DHT22;20140;49.356;8.812;2022-09-13T11:57:08;22.80;99.90
33837;DHT22;20140;49.356;8.812;2022-09-13T12:02:19;23.20;99.90
33837;DHT22;20140;49.356;8.812;2022-09-13T12:05:10;23.30;99.90
33837;DHT22;20140;49.356;8.812;2022-09-13T12:08:00;23.30;99.90
33837;DHT22;20140;49.356;8.812;2022-09-13T12:10:43;23.60;99.90
33837;DHT22;20140;49.356;8.812;2022-09-13T12:13:19;23.60;99.90
33837;DHT22;20140;49.356;8.812;2022-09-13T12:16:04;23.70;99.90
33837;DHT22;20140;49.356;8.812;2022-09-13T12:21:09;24.10;99.90
33837;DHT22;20140;49.356;8.812;2022-09-13T12:23:40;24.20;99.90
33837;DHT22;20140;49.356;8.812;2022-09-13T12:26:20;24.20;99.90
33837;DHT22;20140;49.356;8.812;2022-09-13T12:28:48;24.30;99.90
33837;DHT22;20140;49.356;8.812;2022-09-13T12:31:23;24.40;99.90
33837;DHT22;20140;49.356;8.812;2022-09-13T12:33:50;24.20;99.90
33837;DHT22;20140;49.356;8.812;2022-09-13T12:42:08;24.40;99.90
33837;DHT22;20140;49.356;8.812;2022-09-13T12:48:03;24.50;99.90
33837;DHT22;20140;49.356;8.812;2022-09-13T12:50:50;24.30;99.90
33837;DHT22;20140;49.356;8.812;2022-09-13T12:53:49;24.20;99.90
33837;DHT22;20140;49.356;8.812;2022-09-13T13:02:01;24.10;99.90
33837;DHT22;20140;49.356;8.812;2022-09-13T13:04:31;24.20;99.90
33837;DHT22;20140;49.356;8.812;2022-09-13T13:06:59;24.40;99.90
33837;DHT22;20140;49.356;8.812;2022-09-13T13:11:53;24.50;99.90
33837;DHT22;20140;49.356;8.812;2022-09-13T13:14:41;24.50;99.90
33837;DHT22;20140;49.356;8.812;2022-09-13T13:17:43;24.60;99.90
33837;DHT22;20140;49.356;8.812;2022-09-13T13:23:35;24.70;99.90
33837;DHT22;20140;49.356;8.812;2022-09-13T13:26:06;24.60;99.90
33837;DHT22;20140;49.356;8.812;2022-09-13T13:31:33;25.10;99.90
33837;DHT22;20140;49.356;8.812;2022-09-13T13:42:09;25.10;99.90
33837;DHT22;20140;49.356;8.812;2022-09-13T13:57:37;26.10;99.90
33837;DHT22;20140;49.356;8.812;2022-09-13T14:00:13;26.50;99.90
33837;DHT22;20140;49.356;8.812;2022-09-13T14:05:52;27.20;99.90
33837;DHT22;20140;49.356;8.812;2022-09-13T14:08:37;26.80;99.90
33837;DHT22;20140;49.356;8.812;2022-09-13T14:19:28;27.10;99.90
33837;DHT22;20140;49.356;8.812;2022-09-13T14:24:44;27.00;99.90
33837;DHT22;20140;49.356;8.812;2022-09-13T14:27:26;26.80;99.90
33837;DHT22;20140;49.356;8.812;2022-09-13T14:29:58;26.70;99.90
33837;DHT22;20140;49.356;8.812;2022-09-13T14:32:26;26.70;99.90
33837;DHT22;20140;49.356;8.812;2022-09-13T14:35:02;26.50;99.90
33837;DHT22;20140;49.356;8.812;2022-09-13T14:37:36;26.40;99.90
33837;DHT22;20140;49.356;8.812;2022-09-13T14:42:38;26.30;99.90
33837;DHT22;20140;49.356;8.812;2022-09-13T14:45:04;26.10;99.90
33837;DHT22;20140;49.356;8.812;2022-09-13T14:47:38;26.10;99.90
33837;DHT22;20140;49.356;8.812;2022-09-13T14:50:21;26.00;99.90
33837;DHT22;20140;49.356;8.812;2022-09-13T14:53:00;25.90;99.90
33837;DHT22;20140;49.356;8.812;2022-09-13T14:55:35;25.90;99.90
33837;DHT22;20140;49.356;8.812;2022-09-13T14:58:05;25.80;99.90
33837;DHT22;20140;49.356;8.812;2022-09-13T15:00:35;25.70;99.90
33837;DHT22;20140;49.356;8.812;2022-09-13T15:03:09;25.70;99.90
33837;DHT22;20140;49.356;8.812;2022-09-13T15:05:36;25.80;99.90
33837;DHT22;20140;49.356;8.812;2022-09-13T15:10:56;25.70;99.90
33837;DHT22;20140;49.356;8.812;2022-09-13T15:13:22;25.50;99.90
33837;DHT22;20140;49.356;8.812;2022-09-13T15:15:47;25.40;99.90
33837;DHT22;20140;49.356;8.812;2022-09-13T15:21:05;25.10;99.90
33837;DHT22;20140;49.356;8.812;2022-09-13T15:23:47;25.00;99.90
33837;DHT22;20140;49.356;8.812;2022-09-13T15:26:21;25.00;99.90
33837;DHT22;20140;49.356;8.812;2022-09-13T15:28:52;24.90;99.90
33837;DHT22;20140;49.356;8.812;2022-09-13T15:31:23;25.10;99.90
33837;DHT22;20140;49.356;8.812;2022-09-13T15:39:45;24.90;99.90
33837;DHT22;20140;49.356;8.812;2022-09-13T15:42:12;24.90;99.90
33837;DHT22;20140;49.356;8.812;2022-09-13T15:44:37;24.90;99.90
33837;DHT22;20140;49.356;8.812;2022-09-13T15:47:08;24.70;99.90
33837;DHT22;20140;49.356;8.812;2022-09-13T15:49:34;24.90;99.90
33837;DHT22;20140;49.356;8.812;2022-09-13T15:52:02;25.10;99.90
33837;DHT22;20140;49.356;8.812;2022-09-13T15:54:40;25.30;99.90
33837;DHT22;20140;49.356;8.812;2022-09-13T15:57:08;25.40;99.90
33837;DHT22;20140;49.356;8.812;2022-09-13T15:59:35;25.20;99.90
33837;DHT22;20140;49.356;8.812;2022-09-13T16:02:05;25.10;99.90
33837;DHT22;20140;49.356;8.812;2022-09-13T16:04:36;25.40;99.90
33837;DHT22;20140;49.356;8.812;2022-09-13T16:07:02;25.40;99.90
33837;DHT22;20140;49.356;8.812;2022-09-13T16:09:27;25.40;99.90
33837;DHT22;20140;49.356;8.812;2022-09-13T16:11:53;25.60;99.90
33837;DHT22;20140;49.356;8.812;2022-09-13T16:14:18;25.60;99.90
33837;DHT22;20140;49.356;8.812;2022-09-13T16:16:45;25.60;99.90
33837;DHT22;20140;49.356;8.812;2022-09-13T16:19:15;25.40;99.90
33837;DHT22;20140;49.356;8.812;2022-09-13T16:21:41;25.30;99.90
33837;DHT22;20140;49.356;8.812;2022-09-13T16:24:07;25.20;99.90
33837;DHT22;20140;49.356;8.812;2022-09-13T16:26:33;25.10;99.90
33837;DHT22;20140;49.356;8.812;2022-09-13T16:28:59;24.90;99.90
33837;DHT22;20140;49.356;8.812;2022-09-13T16:31:24;24.70;99.90
33837;DHT22;20140;49.356;8.812;2022-09-13T16:33:50;24.50;99.90
33837;DHT22;20140;49.356;8.812;2022-09-13T16:36:16;24.40;99.90
33837;DHT22;20140;49.356;8.812;2022-09-13T16:38:41;24.20;99.90
33837;DHT22;20140;49.356;8.812;2022-09-13T16:41:07;24.10;99.90
33837;DHT22;20140;49.356;8.812;2022-09-13T16:43:33;24.00;99.90
33837;DHT22;20140;49.356;8.812;2022-09-13T16:46:04;23.80;99.90
33837;DHT22;20140;49.356;8.812;2022-09-13T16:48:30;23.70;99.90
33837;DHT22;20140;49.356;8.812;2022-09-13T16:51:04;23.70;99.90
33837;DHT22;20140;49.356;8.812;2022-09-13T16:53:31;23.50;99.90
33837;DHT22;20140;49.356;8.812;2022-09-13T16:56:06;23.40;99.90
33837;DHT22;20140;49.356;8.812;2022-09-13T16:58:35;23.30;99.90
33837;DHT22;20140;49.356;8.812;2022-09-13T17:01:03;23.20;99.90
33837;DHT22;20140;49.356;8.812;2022-09-13T17:03:29;23.20;99.90
33837;DHT22;20140;49.356;8.812;2022-09-13T17:05:59;23.10;99.90
33837;DHT22;20140;49.356;8.812;2022-09-13T17:08:25;22.90;99.90
33837;DHT22;20140;49.356;8.812;2022-09-13T17:10:51;22.80;99.90
33837;DHT22;20140;49.356;8.812;2022-09-13T17:13:16;22.60;99.90
33837;DHT22;20140;49.356;8.812;2022-09-13T17:15:42;22.60;99.90
33837;DHT22;20140;49.356;8.812;2022-09-13T17:18:07;22.50;99.90
33837;DHT22;20140;49.356;8.812;2022-09-13T17:20:33;22.40;99.90
33837;DHT22;20140;49.356;8.812;2022-09-13T17:22:58;22.40;99.90
33837;DHT22;20140;49.356;8.812;2022-09-13T17:25:25;22.40;99.90
33837;DHT22;20140;49.356;8.812;2022-09-13T17:27:51;22.30;99.90
33837;DHT22;20140;49.356;8.812;2022-09-13T17:30:17;22.20;99.90
33837;DHT22;20140;49.356;8.812;2022-09-13T17:32:42;22.10;99.90
33837;DHT22;20140;49.356;8.812;2022-09-13T17:35:08;22.10;99.90
33837;DHT22;20140;49.356;8.812;2022-09-13T17:37:35;22.10;99.90
33837;DHT22;20140;49.356;8.812;2022-09-13T17:40:01;22.00;99.90
33837;DHT22;20140;49.356;8.812;2022-09-13T17:42:26;22.00;99.90
33837;DHT22;20140;49.356;8.812;2022-09-13T17:44:52;22.00;99.90
33837;DHT22;20140;49.356;8.812;2022-09-13T17:47:17;22.00;99.90
33837;DHT22;20140;49.356;8.812;2022-09-13T17:49:43;21.90;99.90
33837;DHT22;20140;49.356;8.812;2022-09-13T17:52:10;21.80;99.90
33837;DHT22;20140;49.356;8.812;2022-09-13T17:54:35;21.70;99.90
33837;DHT22;20140;49.356;8.812;2022-09-13T17:57:01;21.60;99.90
33837;DHT22;20140;49.356;8.812;2022-09-13T17:59:26;21.60;99.90
33837;DHT22;20140;49.356;8.812;2022-09-13T18:01:53;21.40;99.90
33837;DHT22;20140;49.356;8.812;2022-09-13T18:04:20;21.40;99.90
33837;DHT22;20140;49.356;8.812;2022-09-13T18:06:47;21.40;99.90
33837;DHT22;20140;49.356;8.812;2022-09-13T18:09:13;21.20;99.90
33837;DHT22;20140;49.356;8.812;2022-09-13T18:11:40;21.20;99.90
33837;DHT22;20140;49.356;8.812;2022-09-13T18:14:10;21.10;99.90
33837;DHT22;20140;49.356;8.812;2022-09-13T18:16:36;21.10;99.90
33837;DHT22;20140;49.356;8.812;2022-09-13T18:19:02;21.00;99.90
33837;DHT22;20140;49.356;8.812;2022-09-13T18:21:27;20.90;99.90
33837;DHT22;20140;49.356;8.812;2022-09-13T18:23:57;21.00;99.90
33837;DHT22;20140;49.356;8.812;2022-09-13T18:26:24;21.10;99.90
33837;DHT22;20140;49.356;8.812;2022-09-13T18:28:54;21.10;99.90
33837;DHT22;20140;49.356;8.812;2022-09-13T18:31:21;20.90;99.90
33837;DHT22;20140;49.356;8.812;2022-09-13T18:33:47;20.90;99.90
33837;DHT22;20140;49.356;8.812;2022-09-13T18:36:17;20.80;99.90
33837;DHT22;20140;49.356;8.812;2022-09-13T18:38:46;20.70;99.90
33837;DHT22;20140;49.356;8.812;2022-09-13T18:41:21;20.80;99.90
33837;DHT22;20140;49.356;8.812;2022-09-13T18:43:49;20.90;99.90
33837;DHT22;20140;49.356;8.812;2022-09-13T18:46:17;20.90;99.90
33837;DHT22;20140;49.356;8.812;2022-09-13T18:48:47;21.00;99.90
33837;DHT22;20140;49.356;8.812;2022-09-13T18:51:18;20.90;99.90
33837;DHT22;20140;49.356;8.812;2022-09-13T18:53:44;20.90;99.90
33837;DHT22;20140;49.356;8.812;2022-09-13T18:56:13;20.90;99.90
33837;DHT22;20140;49.356;8.812;2022-09-13T18:58:40;20.90;99.90